sensor_id;sensor_type;location;lat;lon;timestamp;P1;durP1;ratioP1;P2;durP2;ratioP2
10823;SDS011;39116;59.332;18.034;2024-02-14T00:00:24;10.87;;;7.20;;
10823;SDS011;39116;59.332;18.034;2024-02-14T00:02:46;12.10;;;7.53;;
10823;SDS011;39116;59.332;18.034;2024-02-14T00:05:09;11.93;;;7.50;;
10823;SDS011;39116;59.332;18.034;2024-02-14T00:07:31;10.67;;;6.97;;
10823;SDS011;39116;59.332;18.034;2024-02-14T00:09:52;12.10;;;7.47;;
10823;SDS011;39116;59.332;18.034;2024-02-14T00:12:16;10.63;;;7.17;;
10823;SDS011;39116;59.332;18.034;2024-02-14T00:14:37;11.80;;;7.10;;
10823;SDS011;39116;59.332;18.034;2024-02-14T00:16:59;11.27;;;6.80;;
10823;SDS011;39116;59.332;18.034;2024-02-14T00:19:21;12.13;;;7.43;;
10823;SDS011;39116;59.332;18.034;2024-02-14T00:21:42;11.73;;;7.47;;
10823;SDS011;39116;59.332;18.034;2024-02-14T00:24:04;12.67;;;7.47;;
10823;SDS011;39116;59.332;18.034;2024-02-14T00:26:26;13.27;;;7.40;;
10823;SDS011;39116;59.332;18.034;2024-02-14T00:28:49;12.50;;;7.67;;
10823;SDS011;39116;59.332;18.034;2024-02-14T00:31:11;11.77;;;7.60;;
10823;SDS011;39116;59.332;18.034;2024-02-14T00:33:32;15.90;;;8.03;;
10823;SDS011;39116;59.332;18.034;2024-02-14T00:35:54;14.03;;;8.87;;
10823;SDS011;39116;59.332;18.034;2024-02-14T00:38:15;12.50;;;8.37;;
10823;SDS011;39116;59.332;18.034;2024-02-14T00:40:38;14.43;;;8.33;;
10823;SDS011;39116;59.332;18.034;2024-02-14T00:42:59;25.73;;;9.53;;
10823;SDS011;39116;59.332;18.034;2024-02-14T00:45:22;19.80;;;9.97;;
10823;SDS011;39116;59.332;18.034;2024-02-14T00:47:44;18.30;;;9.93;;
10823;SDS011;39116;59.332;18.034;2024-02-14T00:50:06;17.47;;;9.70;;
10823;SDS011;39116;59.332;18.034;2024-02-14T00:52:28;15.70;;;9.90;;
10823;SDS011;39116;59.332;18.034;2024-02-14T00:54:49;15.00;;;10.20;;
10823;SDS011;39116;59.332;18.034;2024-02-14T00:57:11;23.33;;;10.07;;
10823;SDS011;39116;59.332;18.034;2024-02-14T00:59:32;22.63;;;9.63;;
10823;SDS011;39116;59.332;18.034;2024-02-14T01:01:56;16.67;;;10.03;;
10823;SDS011;39116;59.332;18.034;2024-02-14T01:04:17;14.80;;;9.27;;
10823;SDS011;39116;59.332;18.034;2024-02-14T01:06:39;14.73;;;9.50;;
10823;SDS011;39116;59.332;18.034;2024-02-14T01:09:01;25.40;;;9.70;;
10823;SDS011;39116;59.332;18.034;2024-02-14T01:11:23;22.77;;;9.33;;
10823;SDS011;39116;59.332;18.034;2024-02-14T01:13:45;13.40;;;9.00;;
10823;SDS011;39116;59.332;18.034;2024-02-14T01:16:06;25.63;;;9.40;;
10823;SDS011;39116;59.332;18.034;2024-02-14T01:18:30;23.10;;;9.33;;
10823;SDS011;39116;59.332;18.034;2024-02-14T01:20:51;15.30;;;9.03;;
10823;SDS011;39116;59.332;18.034;2024-02-14T01:23:14;13.63;;;8.40;;
10823;SDS011;39116;59.332;18.034;2024-02-14T01:25:35;14.10;;;8.93;;
10823;SDS011;39116;59.332;18.034;2024-02-14T01:27:57;12.83;;;9.40;;
10823;SDS011;39116;59.332;18.034;2024-02-14T01:30:19;13.47;;;8.70;;
10823;SDS011;39116;59.332;18.034;2024-02-14T01:32:40;15.23;;;9.13;;
10823;SDS011;39116;59.332;18.034;2024-02-14T01:35:04;15.20;;;9.20;;
10823;SDS011;39116;59.332;18.034;2024-02-14T01:37:26;15.17;;;9.17;;
10823;SDS011;39116;59.332;18.034;2024-02-14T01:39:49;13.77;;;8.43;;
10823;SDS011;39116;59.332;18.034;2024-02-14T01:42:11;13.27;;;8.30;;
10823;SDS011;39116;59.332;18.034;2024-02-14T01:44:32;18.93;;;9.10;;
10823;SDS011;39116;59.332;18.034;2024-02-14T01:46:54;17.87;;;9.37;;
10823;SDS011;39116;59.332;18.034;2024-02-14T01:49:16;13.77;;;8.87;;
10823;SDS011;39116;59.332;18.034;2024-02-14T01:51:39;13.43;;;9.20;;
10823;SDS011;39116;59.332;18.034;2024-02-14T01:54:02;14.97;;;8.60;;
10823;SDS011;39116;59.332;18.034;2024-02-14T01:56:24;15.33;;;9.53;;
10823;SDS011;39116;59.332;18.034;2024-02-14T01:58:47;14.63;;;9.53;;
10823;SDS011;39116;59.332;18.034;2024-02-14T08:52:50;31.07;;;14.20;;
10823;SDS011;39116;59.332;18.034;2024-02-14T08:55:11;28.70;;;13.70;;
10823;SDS011;39116;59.332;18.034;2024-02-14T08:57:37;30.50;;;13.37;;
10823;SDS011;39116;59.332;18.034;2024-02-14T08:59:59;33.07;;;14.90;;
10823;SDS011;39116;59.332;18.034;2024-02-14T09:02:20;29.63;;;14.63;;
10823;SDS011;39116;59.332;18.034;2024-02-14T09:04:43;31.67;;;13.23;;
10823;SDS011;39116;59.332;18.034;2024-02-14T09:07:05;31.07;;;12.43;;
10823;SDS011;39116;59.332;18.034;2024-02-14T09:09:28;28.07;;;12.67;;
10823;SDS011;39116;59.332;18.034;2024-02-14T09:11:51;21.07;;;9.73;;
10823;SDS011;39116;59.332;18.034;2024-02-14T09:14:13;20.83;;;10.63;;
10823;SDS011;39116;59.332;18.034;2024-02-14T09:16:35;21.20;;;10.67;;
10823;SDS011;39116;59.332;18.034;2024-02-14T09:18:57;21.77;;;11.07;;
10823;SDS011;39116;59.332;18.034;2024-02-14T09:21:19;23.27;;;12.03;;
10823;SDS011;39116;59.332;18.034;2024-02-14T09:23:41;25.23;;;11.70;;
10823;SDS011;39116;59.332;18.034;2024-02-14T09:26:06;25.27;;;12.60;;
10823;SDS011;39116;59.332;18.034;2024-02-14T09:28:28;22.23;;;12.10;;
10823;SDS011;39116;59.332;18.034;2024-02-14T09:30:49;24.13;;;11.23;;
10823;SDS011;39116;59.332;18.034;2024-02-14T09:33:11;25.40;;;12.23;;
10823;SDS011;39116;59.332;18.034;2024-02-14T09:35:33;23.40;;;11.77;;
10823;SDS011;39116;59.332;18.034;2024-02-14T09:37:55;25.70;;;12.70;;
10823;SDS011;39116;59.332;18.034;2024-02-14T09:40:16;28.50;;;14.27;;
10823;SDS011;39116;59.332;18.034;2024-02-14T09:42:44;26.87;;;13.03;;
10823;SDS011;39116;59.332;18.034;2024-02-14T09:45:06;22.80;;;12.30;;
10823;SDS011;39116;59.332;18.034;2024-02-14T09:47:28;23.40;;;12.47;;
10823;SDS011;39116;59.332;18.034;2024-02-14T09:49:52;23.03;;;12.57;;
10823;SDS011;39116;59.332;18.034;2024-02-14T09:52:14;21.33;;;11.77;;
10823;SDS011;39116;59.332;18.034;2024-02-14T09:54:36;24.57;;;12.80;;
10823;SDS011;39116;59.332;18.034;2024-02-14T09:56:59;24.23;;;12.57;;
10823;SDS011;39116;59.332;18.034;2024-02-14T09:59:22;33.00;;;13.53;;
10823;SDS011;39116;59.332;18.034;2024-02-14T10:01:43;31.10;;;12.77;;
10823;SDS011;39116;59.332;18.034;2024-02-14T10:04:06;26.83;;;13.23;;
10823;SDS011;39116;59.332;18.034;2024-02-14T10:06:27;27.60;;;12.57;;
10823;SDS011;39116;59.332;18.034;2024-02-14T10:08:51;23.30;;;12.30;;
10823;SDS011;39116;59.332;18.034;2024-02-14T10:11:12;30.20;;;13.87;;
10823;SDS011;39116;59.332;18.034;2024-02-14T10:13:35;28.43;;;14.27;;
10823;SDS011;39116;59.332;18.034;2024-02-14T10:15:58;31.73;;;13.30;;
10823;SDS011;39116;59.332;18.034;2024-02-14T10:18:20;25.87;;;13.07;;
10823;SDS011;39116;59.332;18.034;2024-02-14T10:20:52;29.27;;;14.57;;
10823;SDS011;39116;59.332;18.034;2024-02-14T10:23:13;28.07;;;12.87;;
10823;SDS011;39116;59.332;18.034;2024-02-14T10:25:34;29.47;;;13.50;;
10823;SDS011;39116;59.332;18.034;2024-02-14T10:27:56;31.10;;;14.57;;
10823;SDS011;39116;59.332;18.034;2024-02-14T10:30:18;27.57;;;13.67;;
10823;SDS011;39116;59.332;18.034;2024-02-14T10:32:43;34.03;;;13.67;;
10823;SDS011;39116;59.332;18.034;2024-02-14T10:35:08;26.17;;;13.30;;
10823;SDS011;39116;59.332;18.034;2024-02-14T10:37:32;25.67;;;13.03;;
10823;SDS011;39116;59.332;18.034;2024-02-14T10:39:54;25.77;;;13.33;;
10823;SDS011;39116;59.332;18.034;2024-02-14T10:42:17;22.97;;;12.33;;
10823;SDS011;39116;59.332;18.034;2024-02-14T10:44:39;23.70;;;11.90;;
10823;SDS011;39116;59.332;18.034;2024-02-14T10:47:02;21.70;;;11.50;;
10823;SDS011;39116;59.332;18.034;2024-02-14T10:49:25;25.80;;;12.77;;
10823;SDS011;39116;59.332;18.034;2024-02-14T10:51:49;25.60;;;12.33;;
10823;SDS011;39116;59.332;18.034;2024-02-14T10:54:13;24.47;;;12.63;;
10823;SDS011;39116;59.332;18.034;2024-02-14T10:56:38;26.43;;;13.27;;
10823;SDS011;39116;59.332;18.034;2024-02-14T10:59:00;27.40;;;12.90;;
10823;SDS011;39116;59.332;18.034;2024-02-14T11:01:22;27.33;;;13.60;;
10823;SDS011;39116;59.332;18.034;2024-02-14T11:03:46;24.33;;;13.07;;
10823;SDS011;39116;59.332;18.034;2024-02-14T11:06:14;29.30;;;14.00;;
10823;SDS011;39116;59.332;18.034;2024-02-14T11:08:36;29.90;;;13.83;;
10823;SDS011;39116;59.332;18.034;2024-02-14T11:10:58;29.37;;;13.83;;
10823;SDS011;39116;59.332;18.034;2024-02-14T11:13:20;25.50;;;13.77;;
10823;SDS011;39116;59.332;18.034;2024-02-14T11:15:44;23.97;;;13.03;;
10823;SDS011;39116;59.332;18.034;2024-02-14T11:18:07;25.77;;;12.95;;
10823;SDS011;39116;59.332;18.034;2024-02-14T11:20:31;23.58;;;12.80;;
10823;SDS011;39116;59.332;18.034;2024-02-14T11:22:54;24.60;;;12.25;;
10823;SDS011;39116;59.332;18.034;2024-02-14T11:25:17;24.60;;;12.35;;
10823;SDS011;39116;59.332;18.034;2024-02-14T11:27:43;27.42;;;12.35;;
10823;SDS011;39116;59.332;18.034;2024-02-14T11:30:05;23.13;;;11.98;;
10823;SDS011;39116;59.332;18.034;2024-02-14T11:32:27;22.93;;;12.40;;
10823;SDS011;39116;59.332;18.034;2024-02-14T11:34:53;23.88;;;12.15;;
10823;SDS011;39116;59.332;18.034;2024-02-14T11:37:14;22.47;;;11.73;;
10823;SDS011;39116;59.332;18.034;2024-02-14T11:39:37;27.38;;;11.88;;
10823;SDS011;39116;59.332;18.034;2024-02-14T11:42:00;31.67;;;12.18;;
10823;SDS011;39116;59.332;18.034;2024-02-14T11:44:22;19.95;;;10.38;;
10823;SDS011;39116;59.332;18.034;2024-02-14T11:46:43;22.38;;;10.88;;
10823;SDS011;39116;59.332;18.034;2024-02-14T11:49:05;21.43;;;10.27;;
10823;SDS011;39116;59.332;18.034;2024-02-14T11:51:27;20.38;;;9.90;;
10823;SDS011;39116;59.332;18.034;2024-02-14T11:53:48;24.77;;;9.60;;
10823;SDS011;39116;59.332;18.034;2024-02-14T11:56:11;19.10;;;10.02;;
10823;SDS011;39116;59.332;18.034;2024-02-14T11:58:33;16.85;;;9.15;;
10823;SDS011;39116;59.332;18.034;2024-02-14T12:00:55;21.45;;;9.15;;
10823;SDS011;39116;59.332;18.034;2024-02-14T12:03:17;20.52;;;9.32;;
10823;SDS011;39116;59.332;18.034;2024-02-14T12:05:39;18.13;;;8.90;;
10823;SDS011;39116;59.332;18.034;2024-02-14T12:08:03;19.77;;;9.30;;
10823;SDS011;39116;59.332;18.034;2024-02-14T12:10:25;18.90;;;9.38;;
10823;SDS011;39116;59.332;18.034;2024-02-14T12:12:49;25.17;;;10.15;;
10823;SDS011;39116;59.332;18.034;2024-02-14T12:15:11;19.60;;;8.80;;
10823;SDS011;39116;59.332;18.034;2024-02-14T12:17:35;16.42;;;9.02;;
10823;SDS011;39116;59.332;18.034;2024-02-14T12:20:04;18.63;;;8.77;;
10823;SDS011;39116;59.332;18.034;2024-02-14T12:22:26;19.65;;;8.35;;
10823;SDS011;39116;59.332;18.034;2024-02-14T12:24:48;15.98;;;8.55;;
10823;SDS011;39116;59.332;18.034;2024-02-14T12:27:10;15.63;;;8.63;;
10823;SDS011;39116;59.332;18.034;2024-02-14T12:29:34;17.55;;;8.45;;
10823;SDS011;39116;59.332;18.034;2024-02-14T12:32:03;15.52;;;8.75;;
10823;SDS011;39116;59.332;18.034;2024-02-14T12:34:27;18.98;;;8.88;;
10823;SDS011;39116;59.332;18.034;2024-02-14T12:36:49;15.60;;;7.95;;
10823;SDS011;39116;59.332;18.034;2024-02-14T12:39:10;20.75;;;9.00;;
10823;SDS011;39116;59.332;18.034;2024-02-14T12:41:32;19.25;;;6.50;;
10823;SDS011;39116;59.332;18.034;2024-02-14T12:43:55;14.10;;;6.72;;
10823;SDS011;39116;59.332;18.034;2024-02-14T12:46:18;16.95;;;6.20;;
10823;SDS011;39116;59.332;18.034;2024-02-14T12:48:40;15.90;;;5.28;;
10823;SDS011;39116;59.332;18.034;2024-02-14T12:51:01;11.98;;;5.57;;
10823;SDS011;39116;59.332;18.034;2024-02-14T12:53:23;13.98;;;5.30;;
10823;SDS011;39116;59.332;18.034;2024-02-14T12:55:45;14.60;;;5.03;;
10823;SDS011;39116;59.332;18.034;2024-02-14T12:58:07;11.10;;;4.45;;
10823;SDS011;39116;59.332;18.034;2024-02-14T13:00:29;14.02;;;4.30;;
10823;SDS011;39116;59.332;18.034;2024-02-14T13:02:53;10.82;;;4.53;;
10823;SDS011;39116;59.332;18.034;2024-02-14T13:05:15;10.75;;;3.70;;
10823;SDS011;39116;59.332;18.034;2024-02-14T13:07:37;13.35;;;4.03;;
10823;SDS011;39116;59.332;18.034;2024-02-14T13:09:58;8.52;;;3.75;;
10823;SDS011;39116;59.332;18.034;2024-02-14T13:12:20;6.30;;;3.72;;
10823;SDS011;39116;59.332;18.034;2024-02-14T13:14:42;11.38;;;4.15;;
10823;SDS011;39116;59.332;18.034;2024-02-14T13:17:04;12.75;;;3.75;;
10823;SDS011;39116;59.332;18.034;2024-02-14T13:19:27;8.20;;;3.65;;
10823;SDS011;39116;59.332;18.034;2024-02-14T13:21:49;11.02;;;3.13;;
10823;SDS011;39116;59.332;18.034;2024-02-14T13:24:11;10.55;;;3.75;;
10823;SDS011;39116;59.332;18.034;2024-02-14T13:26:34;9.27;;;3.63;;
10823;SDS011;39116;59.332;18.034;2024-02-14T13:28:55;11.85;;;4.32;;
10823;SDS011;39116;59.332;18.034;2024-02-14T13:31:17;11.38;;;3.80;;
10823;SDS011;39116;59.332;18.034;2024-02-14T13:33:38;8.35;;;4.22;;
10823;SDS011;39116;59.332;18.034;2024-02-14T13:36:01;16.20;;;4.93;;
10823;SDS011;39116;59.332;18.034;2024-02-14T13:38:23;8.63;;;3.53;;
10823;SDS011;39116;59.332;18.034;2024-02-14T13:40:45;8.20;;;3.83;;
10823;SDS011;39116;59.332;18.034;2024-02-14T13:43:07;9.65;;;4.55;;
10823;SDS011;39116;59.332;18.034;2024-02-14T13:45:40;10.93;;;4.40;;
10823;SDS011;39116;59.332;18.034;2024-02-14T13:48:02;9.32;;;3.92;;
10823;SDS011;39116;59.332;18.034;2024-02-14T13:50:25;6.93;;;4.18;;
10823;SDS011;39116;59.332;18.034;2024-02-14T13:52:48;11.00;;;4.13;;
10823;SDS011;39116;59.332;18.034;2024-02-14T13:55:09;11.32;;;4.13;;
10823;SDS011;39116;59.332;18.034;2024-02-14T13:57:31;15.77;;;4.82;;
10823;SDS011;39116;59.332;18.034;2024-02-14T13:59:53;9.15;;;4.07;;
10823;SDS011;39116;59.332;18.034;2024-02-14T14:02:14;10.77;;;4.60;;
10823;SDS011;39116;59.332;18.034;2024-02-14T14:04:36;9.05;;;4.00;;
10823;SDS011;39116;59.332;18.034;2024-02-14T14:06:58;9.13;;;4.43;;
10823;SDS011;39116;59.332;18.034;2024-02-14T14:09:24;12.23;;;4.32;;
10823;SDS011;39116;59.332;18.034;2024-02-14T14:11:46;12.23;;;4.35;;
10823;SDS011;39116;59.332;18.034;2024-02-14T14:14:11;15.93;;;5.28;;
10823;SDS011;39116;59.332;18.034;2024-02-14T14:16:38;9.02;;;4.47;;
10823;SDS011;39116;59.332;18.034;2024-02-14T14:18:59;8.13;;;4.45;;
10823;SDS011;39116;59.332;18.034;2024-02-14T14:21:21;11.07;;;3.88;;
10823;SDS011;39116;59.332;18.034;2024-02-14T14:23:43;9.32;;;4.05;;
10823;SDS011;39116;59.332;18.034;2024-02-14T14:26:06;8.15;;;3.45;;
10823;SDS011;39116;59.332;18.034;2024-02-14T14:28:28;9.27;;;4.05;;
10823;SDS011;39116;59.332;18.034;2024-02-14T14:30:52;9.00;;;4.00;;
10823;SDS011;39116;59.332;18.034;2024-02-14T14:33:14;12.05;;;3.63;;
10823;SDS011;39116;59.332;18.034;2024-02-14T14:35:36;8.88;;;3.03;;
10823;SDS011;39116;59.332;18.034;2024-02-14T14:37:59;13.00;;;3.83;;
10823;SDS011;39116;59.332;18.034;2024-02-14T14:40:21;11.50;;;3.70;;
10823;SDS011;39116;59.332;18.034;2024-02-14T14:42:44;10.68;;;3.95;;
10823;SDS011;39116;59.332;18.034;2024-02-14T14:45:06;11.40;;;3.80;;
10823;SDS011;39116;59.332;18.034;2024-02-14T14:47:28;9.13;;;3.97;;
10823;SDS011;39116;59.332;18.034;2024-02-14T14:49:49;10.13;;;3.40;;
10823;SDS011;39116;59.332;18.034;2024-02-14T14:52:11;6.55;;;3.10;;
10823;SDS011;39116;59.332;18.034;2024-02-14T14:54:33;10.98;;;3.42;;
10823;SDS011;39116;59.332;18.034;2024-02-14T14:56:54;9.48;;;3.67;;
10823;SDS011;39116;59.332;18.034;2024-02-14T14:59:17;7.88;;;3.25;;
10823;SDS011;39116;59.332;18.034;2024-02-14T15:01:39;6.33;;;3.23;;
10823;SDS011;39116;59.332;18.034;2024-02-14T15:04:00;7.93;;;3.28;;
10823;SDS011;39116;59.332;18.034;2024-02-14T15:06:22;8.82;;;3.83;;
10823;SDS011;39116;59.332;18.034;2024-02-14T15:08:44;15.05;;;3.85;;
10823;SDS011;39116;59.332;18.034;2024-02-14T15:11:07;11.30;;;3.83;;
10823;SDS011;39116;59.332;18.034;2024-02-14T15:13:29;6.78;;;3.17;;
10823;SDS011;39116;59.332;18.034;2024-02-14T15:15:53;12.27;;;3.67;;
10823;SDS011;39116;59.332;18.034;2024-02-14T15:18:14;13.37;;;3.60;;
10823;SDS011;39116;59.332;18.034;2024-02-14T15:20:36;12.13;;;3.90;;
10823;SDS011;39116;59.332;18.034;2024-02-14T15:22:58;11.77;;;3.58;;
10823;SDS011;39116;59.332;18.034;2024-02-14T15:25:19;9.38;;;3.80;;
10823;SDS011;39116;59.332;18.034;2024-02-14T15:27:41;10.80;;;4.10;;
10823;SDS011;39116;59.332;18.034;2024-02-14T15:30:14;7.80;;;3.07;;
10823;SDS011;39116;59.332;18.034;2024-02-14T15:32:54;10.10;;;4.13;;
10823;SDS011;39116;59.332;18.034;2024-02-14T15:35:34;10.33;;;4.40;;
10823;SDS011;39116;59.332;18.034;2024-02-14T15:37:55;10.07;;;3.60;;
10823;SDS011;39116;59.332;18.034;2024-02-14T15:40:17;13.47;;;3.87;;
10823;SDS011;39116;59.332;18.034;2024-02-14T15:42:38;11.43;;;4.13;;
10823;SDS011;39116;59.332;18.034;2024-02-14T15:45:00;7.57;;;3.90;;
10823;SDS011;39116;59.332;18.034;2024-02-14T15:47:22;10.70;;;4.53;;
10823;SDS011;39116;59.332;18.034;2024-02-14T15:49:45;11.03;;;4.07;;
10823;SDS011;39116;59.332;18.034;2024-02-14T15:52:06;10.37;;;4.67;;
10823;SDS011;39116;59.332;18.034;2024-02-14T15:54:28;15.60;;;5.25;;
10823;SDS011;39116;59.332;18.034;2024-02-14T15:56:50;12.23;;;4.47;;
10823;SDS011;39116;59.332;18.034;2024-02-14T15:59:11;7.85;;;4.63;;
10823;SDS011;39116;59.332;18.034;2024-02-14T16:01:35;13.00;;;4.50;;
10823;SDS011;39116;59.332;18.034;2024-02-14T16:03:58;9.43;;;3.63;;
10823;SDS011;39116;59.332;18.034;2024-02-14T16:06:21;12.00;;;3.77;;
10823;SDS011;39116;59.332;18.034;2024-02-14T16:08:43;8.27;;;3.50;;
10823;SDS011;39116;59.332;18.034;2024-02-14T16:11:05;9.98;;;4.00;;
10823;SDS011;39116;59.332;18.034;2024-02-14T16:13:28;10.43;;;4.40;;
10823;SDS011;39116;59.332;18.034;2024-02-14T16:15:50;12.30;;;4.70;;
10823;SDS011;39116;59.332;18.034;2024-02-14T16:18:12;10.55;;;4.80;;
10823;SDS011;39116;59.332;18.034;2024-02-14T16:20:33;8.88;;;4.38;;
10823;SDS011;39116;59.332;18.034;2024-02-14T16:22:56;18.23;;;4.67;;
10823;SDS011;39116;59.332;18.034;2024-02-14T16:25:18;9.73;;;5.00;;
10823;SDS011;39116;59.332;18.034;2024-02-14T16:27:40;10.57;;;4.90;;
10823;SDS011;39116;59.332;18.034;2024-02-14T16:30:02;10.68;;;4.53;;
10823;SDS011;39116;59.332;18.034;2024-02-14T16:32:25;12.00;;;4.87;;
10823;SDS011;39116;59.332;18.034;2024-02-14T16:34:47;10.87;;;4.27;;
10823;SDS011;39116;59.332;18.034;2024-02-14T16:37:09;12.20;;;4.80;;
10823;SDS011;39116;59.332;18.034;2024-02-14T16:39:38;14.10;;;4.63;;
10823;SDS011;39116;59.332;18.034;2024-02-14T16:41:59;11.43;;;4.27;;
10823;SDS011;39116;59.332;18.034;2024-02-14T16:44:22;9.73;;;4.60;;
10823;SDS011;39116;59.332;18.034;2024-02-14T16:46:44;11.60;;;5.00;;
10823;SDS011;39116;59.332;18.034;2024-02-14T16:49:06;10.20;;;4.43;;
10823;SDS011;39116;59.332;18.034;2024-02-14T16:51:29;12.67;;;4.47;;
10823;SDS011;39116;59.332;18.034;2024-02-14T16:53:51;8.77;;;4.23;;
10823;SDS011;39116;59.332;18.034;2024-02-14T16:56:14;11.43;;;4.72;;
10823;SDS011;39116;59.332;18.034;2024-02-14T16:58:37;13.80;;;4.82;;
10823;SDS011;39116;59.332;18.034;2024-02-14T17:00:59;11.00;;;4.60;;
10823;SDS011;39116;59.332;18.034;2024-02-14T17:03:20;16.43;;;4.70;;
10823;SDS011;39116;59.332;18.034;2024-02-14T17:05:42;11.77;;;4.60;;
10823;SDS011;39116;59.332;18.034;2024-02-14T17:08:04;8.15;;;3.80;;
10823;SDS011;39116;59.332;18.034;2024-02-14T17:10:25;10.60;;;4.73;;
10823;SDS011;39116;59.332;18.034;2024-02-14T17:12:48;10.03;;;4.60;;
10823;SDS011;39116;59.332;18.034;2024-02-14T17:15:10;15.38;;;5.03;;
10823;SDS011;39116;59.332;18.034;2024-02-14T17:17:32;10.37;;;4.77;;
10823;SDS011;39116;59.332;18.034;2024-02-14T17:19:53;11.27;;;4.37;;
10823;SDS011;39116;59.332;18.034;2024-02-14T17:22:15;10.60;;;5.17;;
10823;SDS011;39116;59.332;18.034;2024-02-14T17:24:37;11.63;;;5.38;;
10823;SDS011;39116;59.332;18.034;2024-02-14T17:26:59;13.35;;;5.45;;
10823;SDS011;39116;59.332;18.034;2024-02-14T17:29:23;11.90;;;5.15;;
10823;SDS011;39116;59.332;18.034;2024-02-14T17:31:45;10.68;;;5.45;;
10823;SDS011;39116;59.332;18.034;2024-02-14T17:34:08;15.33;;;4.90;;
10823;SDS011;39116;59.332;18.034;2024-02-14T17:36:30;12.10;;;5.32;;
10823;SDS011;39116;59.332;18.034;2024-02-14T17:38:52;20.45;;;5.93;;
10823;SDS011;39116;59.332;18.034;2024-02-14T17:41:15;15.83;;;6.00;;
10823;SDS011;39116;59.332;18.034;2024-02-14T17:43:38;12.03;;;6.73;;
10823;SDS011;39116;59.332;18.034;2024-02-14T17:46:02;18.03;;;7.30;;
10823;SDS011;39116;59.332;18.034;2024-02-14T17:48:24;14.57;;;7.57;;
10823;SDS011;39116;59.332;18.034;2024-02-14T17:50:47;16.47;;;7.87;;
10823;SDS011;39116;59.332;18.034;2024-02-14T17:53:09;15.00;;;7.20;;
10823;SDS011;39116;59.332;18.034;2024-02-14T17:55:31;22.25;;;8.23;;
10823;SDS011;39116;59.332;18.034;2024-02-14T17:57:52;25.53;;;8.43;;
10823;SDS011;39116;59.332;18.034;2024-02-14T18:00:14;17.50;;;8.30;;
10823;SDS011;39116;59.332;18.034;2024-02-14T18:02:37;22.10;;;9.47;;
10823;SDS011;39116;59.332;18.034;2024-02-14T18:04:59;20.75;;;9.07;;
10823;SDS011;39116;59.332;18.034;2024-02-14T18:07:21;22.10;;;9.40;;
10823;SDS011;39116;59.332;18.034;2024-02-14T18:09:43;21.50;;;8.47;;
10823;SDS011;39116;59.332;18.034;2024-02-14T18:12:04;22.00;;;10.23;;
10823;SDS011;39116;59.332;18.034;2024-02-14T18:14:26;23.83;;;9.97;;
10823;SDS011;39116;59.332;18.034;2024-02-14T18:16:49;23.67;;;10.40;;
10823;SDS011;39116;59.332;18.034;2024-02-14T18:19:13;26.73;;;10.07;;
10823;SDS011;39116;59.332;18.034;2024-02-14T18:21:35;26.67;;;9.97;;
10823;SDS011;39116;59.332;18.034;2024-02-14T18:23:56;24.33;;;10.13;;
10823;SDS011;39116;59.332;18.034;2024-02-14T18:26:18;26.73;;;11.87;;
10823;SDS011;39116;59.332;18.034;2024-02-14T18:28:41;34.13;;;11.80;;
10823;SDS011;39116;59.332;18.034;2024-02-14T18:31:03;31.73;;;11.27;;
10823;SDS011;39116;59.332;18.034;2024-02-14T18:33:25;31.63;;;11.53;;
10823;SDS011;39116;59.332;18.034;2024-02-14T18:35:50;29.55;;;10.75;;
10823;SDS011;39116;59.332;18.034;2024-02-14T18:38:12;29.55;;;11.77;;
10823;SDS011;39116;59.332;18.034;2024-02-14T18:40:34;31.63;;;12.98;;
10823;SDS011;39116;59.332;18.034;2024-02-14T18:42:55;26.23;;;11.50;;
10823;SDS011;39116;59.332;18.034;2024-02-14T18:45:17;26.77;;;11.53;;
10823;SDS011;39116;59.332;18.034;2024-02-14T18:47:39;25.03;;;11.60;;
10823;SDS011;39116;59.332;18.034;2024-02-14T18:50:01;31.87;;;11.43;;
10823;SDS011;39116;59.332;18.034;2024-02-14T18:52:24;25.27;;;11.37;;
10823;SDS011;39116;59.332;18.034;2024-02-14T18:54:45;28.43;;;11.20;;
10823;SDS011;39116;59.332;18.034;2024-02-14T18:57:07;28.38;;;11.65;;
10823;SDS011;39116;59.332;18.034;2024-02-14T18:59:29;27.07;;;11.40;;
10823;SDS011;39116;59.332;18.034;2024-02-14T19:01:51;26.23;;;10.95;;
10823;SDS011;39116;59.332;18.034;2024-02-14T19:04:12;24.80;;;12.30;;
10823;SDS011;39116;59.332;18.034;2024-02-14T19:06:34;26.63;;;12.30;;
10823;SDS011;39116;59.332;18.034;2024-02-14T19:08:59;28.80;;;12.13;;
10823;SDS011;39116;59.332;18.034;2024-02-14T19:11:21;28.30;;;11.90;;
10823;SDS011;39116;59.332;18.034;2024-02-14T19:13:43;39.30;;;13.00;;
10823;SDS011;39116;59.332;18.034;2024-02-14T19:16:05;30.77;;;12.17;;
10823;SDS011;39116;59.332;18.034;2024-02-14T19:18:27;29.00;;;11.68;;
10823;SDS011;39116;59.332;18.034;2024-02-14T19:20:49;23.17;;;12.10;;
10823;SDS011;39116;59.332;18.034;2024-02-14T19:23:12;30.53;;;12.67;;
10823;SDS011;39116;59.332;18.034;2024-02-14T19:25:35;29.90;;;12.63;;
10823;SDS011;39116;59.332;18.034;2024-02-14T19:27:57;35.95;;;13.40;;
10823;SDS011;39116;59.332;18.034;2024-02-14T19:30:18;31.23;;;13.67;;
10823;SDS011;39116;59.332;18.034;2024-02-14T19:32:42;36.13;;;13.60;;
10823;SDS011;39116;59.332;18.034;2024-02-14T19:35:04;37.30;;;12.67;;
10823;SDS011;39116;59.332;18.034;2024-02-14T19:37:26;36.05;;;13.57;;
10823;SDS011;39116;59.332;18.034;2024-02-14T19:39:48;38.20;;;13.23;;
10823;SDS011;39116;59.332;18.034;2024-02-14T19:42:11;35.33;;;13.75;;
10823;SDS011;39116;59.332;18.034;2024-02-14T19:44:33;37.80;;;14.00;;
10823;SDS011;39116;59.332;18.034;2024-02-14T19:46:54;49.92;;;16.25;;
10823;SDS011;39116;59.332;18.034;2024-02-14T19:49:16;45.10;;;14.02;;
10823;SDS011;39116;59.332;18.034;2024-02-14T19:51:37;51.10;;;15.25;;
10823;SDS011;39116;59.332;18.034;2024-02-14T19:53:59;53.70;;;14.48;;
10823;SDS011;39116;59.332;18.034;2024-02-14T19:56:21;44.70;;;14.13;;
10823;SDS011;39116;59.332;18.034;2024-02-14T19:58:44;38.43;;;14.17;;
10823;SDS011;39116;59.332;18.034;2024-02-14T20:01:06;36.58;;;14.32;;
10823;SDS011;39116;59.332;18.034;2024-02-14T20:03:29;27.75;;;13.52;;
10823;SDS011;39116;59.332;18.034;2024-02-14T20:05:51;28.10;;;13.03;;
10823;SDS011;39116;59.332;18.034;2024-02-14T20:08:12;38.38;;;14.68;;
10823;SDS011;39116;59.332;18.034;2024-02-14T20:10:34;36.63;;;13.68;;
10823;SDS011;39116;59.332;18.034;2024-02-14T20:12:56;29.53;;;13.27;;
10823;SDS011;39116;59.332;18.034;2024-02-14T20:15:19;30.38;;;13.38;;
10823;SDS011;39116;59.332;18.034;2024-02-14T20:17:41;29.90;;;12.43;;
10823;SDS011;39116;59.332;18.034;2024-02-14T20:20:04;25.20;;;11.68;;
10823;SDS011;39116;59.332;18.034;2024-02-14T20:22:27;21.42;;;10.18;;
10823;SDS011;39116;59.332;18.034;2024-02-14T20:24:49;26.70;;;11.30;;
10823;SDS011;39116;59.332;18.034;2024-02-14T20:27:11;23.15;;;11.73;;
10823;SDS011;39116;59.332;18.034;2024-02-14T20:29:32;29.25;;;11.45;;
10823;SDS011;39116;59.332;18.034;2024-02-14T20:31:54;19.80;;;10.68;;
10823;SDS011;39116;59.332;18.034;2024-02-14T20:34:16;22.48;;;10.48;;
10823;SDS011;39116;59.332;18.034;2024-02-14T20:36:38;25.17;;;11.80;;
10823;SDS011;39116;59.332;18.034;2024-02-14T20:39:01;21.90;;;10.10;;
10823;SDS011;39116;59.332;18.034;2024-02-14T20:41:23;23.60;;;10.93;;